Sukhothai Airport

VTPO · Sukhothai, Tailandia

METAR pasados VTPO · Sukhothai Airport

A continuación puedes ver los METAR de los últimos días. Selecciona un año para ver los METAR más antiguos, desde el año 2007 en adelante.

21 de abril de 2024

Hora Código Tiempo Temp. Visibilidad Cielo nuboso Viento METAR/SPECI
16:00
V
40 °C 10 km+ - Var Var 4 kt METAR VTPO 210900Z VRB04KT 9999 FEW035 40/21 Q1002 NOSIG
15:00
V
40 °C 10 km+ - Var Var 5 kt METAR VTPO 210800Z VRB05KT 9999 FEW035 40/22 Q1003 NOSIG
14:00
V
40 °C 10 km+ - Var Var 2 kt METAR VTPO 210700Z VRB02KT 9999 FEW035 40/21 Q1004 NOSIG
13:00
V
39 °C 10 km+ - Var Var 5 kt METAR VTPO 210600Z VRB05KT 9999 FEW035 39/22 Q1005 NOSIG
12:00
V
38 °C 10 km+ - 210° 210° 6 kt METAR VTPO 210500Z 21006KT 120V260 9999 FEW035 38/23 Q1006 NOSIG
11:00
V
37 °C 9 km - 190° 190° 6 kt METAR VTPO 210400Z 19006KT 090V240 9000 NSC 37/23 Q1007 NOSIG
10:00
V
34 °C 8 km - 240° 240° 6 kt METAR VTPO 210300Z 24006KT 8000 NSC 34/23 Q1008 NOSIG
09:00
V
33 °C 8 km - 230° 230° 7 kt METAR VTPO 210200Z 23007KT 8000 NSC 33/23 Q1008 NOSIG
08:00
V
31 °C 8 km - 230° 230° 7 kt METAR VTPO 210100Z 23007KT 8000 NSC 31/23 Q1008 NOSIG
07:00
M
29 °C 7 km - 240° 240° 5 kt METAR VTPO 210000Z 24005KT 7000 NSC 29/23 Q1006 NOSIG
06:00
M
29 °C 7 km - 230° 230° 5 kt METAR VTPO 202300Z 23005KT 7000 NSC 29/22 Q1005 NOSIG
05:00
V
29 °C 8 km - 230° 230° 7 kt METAR VTPO 202200Z 23007KT 8000 NSC 29/21 Q1004 NOSIG

20 de abril de 2024

Hora Código Tiempo Temp. Visibilidad Cielo nuboso Viento METAR/SPECI
18:00
V
38 °C 10 km+ - 200° 200° 8 kt METAR VTPO 201100Z 20008KT 160V250 9999 FEW035 38/20 Q1000 NOSIG
17:00
V
39 °C 10 km+ - 210° 210° 10 kt METAR VTPO 201000Z 21010KT 140V240 9999 FEW035 39/19 Q1000 NOSIG
16:00
V
40 °C 10 km+ - 210° 210° 9 kt METAR VTPO 200900Z 21009KT 150V250 9999 FEW035 40/20 Q1001 NOSIG
15:00
V
40 °C 10 km+ - 190° 190° 6 kt METAR VTPO 200800Z 19006KT 090V230 9999 FEW035 40/20 Q1002 NOSIG
14:00
V
39 °C 9 km - 200° 200° 6 kt METAR VTPO 200700Z 20006KT 120V250 9000 FEW035 39/21 Q1003 NOSIG
13:00
V
39 °C 9 km - 190° 190° 7 kt METAR VTPO 200600Z 19007KT 120V230 9000 NSC 39/22 Q1005 NOSIG
12:00
V
37 °C 9 km - 240° 240° 8 kt METAR VTPO 200500Z 24008KT 190V290 9000 NSC 37/22 Q1005 NOSIG
11:00
V
36 °C 9 km - 200° 200° 8 kt METAR VTPO 200400Z 20008KT 140V240 9000 NSC 36/23 Q1006 NOSIG
10:00
V
34 °C 8 km - 180° 180° 4 kt METAR VTPO 200300Z 18004KT 090V230 8000 NSC 34/23 Q1007 NOSIG
09:00
V
32 °C 8 km - 220° 220° 3 kt METAR VTPO 200200Z 22003KT 180V270 8000 NSC 32/22 Q1007 NOSIG
08:00
M
29 °C 7 km - Var Var 2 kt METAR VTPO 200100Z VRB02KT 7000 NSC 29/22 Q1007 NOSIG
07:00
M
27 °C 7 km - 360° 360° 0 kt METAR VTPO 200000Z 00000KT 7000 NSC 27/21 Q1006 NOSIG
06:00
M
27 °C 6 km - 360° 360° 0 kt METAR VTPO 192300Z 00000KT 6000 NSC 27/23 Q1005 NOSIG
05:00
M
27 °C 7 km - Var Var 1 kt METAR VTPO 192200Z VRB01KT 7000 NSC 27/21 Q1004 NOSIG

19 de abril de 2024

Hora Código Tiempo Temp. Visibilidad Cielo nuboso Viento METAR/SPECI
18:00
V
32 °C 8 km - Var Var 2 kt METAR VTPO 191100Z VRB02KT 8000 FEW035 32/23 Q1001 NOSIG
17:00
V
33 °C 8 km - 360° 360° 8 - 20 kt METAR VTPO 191000Z 36008G20KT 8000 FEW035 33/23 Q1001 NOSIG
16:00
M
38 °C 7 km - 200° 200° 7 kt METAR VTPO 190900Z 20007KT 150V240 7000 FEW035 38/23 Q1000 NOSIG
15:00
M
40 °C 7 km - 210° 210° 10 - 20 kt METAR VTPO 190800Z 21010G20KT 130V270 7000 FEW035 40/22 Q1001 NOSIG
14:00
M
39 °C 7 km - 170° 170° 6 kt METAR VTPO 190700Z 17006KT 110V240 7000 FEW035 39/23 Q1002 NOSIG
13:00
M
38 °C 7 km - 180° 180° 5 kt METAR VTPO 190600Z 18005KT 110V240 7000 NSC 38/23 Q1004 NOSIG
Cambiar esta información